首页
METAR-TAF:

METAR-TAF

机场 :

亞克羅提利, 塞浦路斯

纬度: 34-35N, 经度: 032-59E, 海拔: 23米

当前天气观测

该预报发布于1小时和10分钟前的00:50 UTC
风速2节,风向北转西北
温度 16°C
湿度 77%
气压 1016 hPa
能见度10公里或以上
1500米以下无云,无积雨云

METAR: LCRA 310050Z 33002KT CAVOK 16/12 Q1016

时间: 05:00 (02:00 UTC)

预报

该预报发布于3小时和39分钟前的22:21 UTC
预报有效从31日的 00点(UTC)到 31日的 18点(UTC)
风速5节,风向
能见度10公里或以上
1500米以下无云,无积雨云
成为
从 31日的 09点(UTC)到 31日的 12点(UTC)
风速15节,风向西转西南,有时为25节阵风

TAF: LCRA 302221Z 3100/3118 01005KT CAVOK BECMG 3109/3112 25015G25KT

超过4000个机场的气象观测和天气预报(METAR&TAF报告)。

可查询的气象台以黄色和红色小点在地图上表示。

将鼠标移到小点上方,可查看气象台名称。

然后点击查看天气观测和预报。

如需切换地图:点击带黑十字的绿色按钮放大地图;点击带横线的绿色按钮缩小地图;或者点击绿色箭头查看邻近地区的地图。


METAR-TAF: